createdAt,value
2022-10-25T00:04:56.647Z,1.03
2022-10-25T00:09:58.203Z,1.20
2022-10-25T00:15:03.754Z,1.10
2022-10-25T00:20:06.068Z,1.00
2022-10-25T00:25:08.248Z,1.07
2022-10-25T00:30:10.428Z,1.20
2022-10-25T00:35:11.876Z,1.00
2022-10-25T00:40:13.502Z,1.00
2022-10-25T00:45:27.365Z,1.37
2022-10-25T00:50:47.718Z,0.90
2022-10-25T00:55:53.764Z,1.17
2022-10-25T01:00:56.592Z,1.33
2022-10-25T01:05:59.962Z,1.07
2022-10-25T01:11:01.570Z,1.10
2022-10-25T01:16:16.285Z,1.80
2022-10-25T01:21:39.250Z,1.10
2022-10-25T01:27:00.108Z,1.00
2022-10-25T01:32:10.993Z,1.40
2022-10-25T01:37:33.968Z,1.17
2022-10-25T01:42:40.776Z,1.20
2022-10-25T01:47:51.510Z,1.30
2022-10-25T01:58:24.328Z,0.90
2022-10-25T02:03:30.876Z,1.40
2022-10-25T02:08:48.803Z,1.00
2022-10-25T02:14:02.534Z,1.40
2022-10-25T02:19:07.574Z,1.30
2022-10-25T02:24:12.536Z,1.33
2022-10-25T02:29:14.937Z,1.30
2022-10-25T02:34:18.423Z,1.07
2022-10-25T02:39:23.848Z,1.00
2022-10-25T02:44:27.257Z,1.03
2022-10-25T02:49:29.172Z,1.10
2022-10-25T02:54:30.897Z,1.17
2022-10-25T02:59:32.771Z,1.20
2022-10-25T03:04:34.407Z,1.20
2022-10-25T03:09:36.081Z,1.10
2022-10-25T03:14:37.619Z,1.10
2022-10-25T03:19:39.166Z,1.00
2022-10-25T03:24:40.815Z,1.17
2022-10-25T03:29:42.820Z,1.20
2022-10-25T03:34:44.605Z,1.30
2022-10-25T03:39:46.175Z,1.20
2022-10-25T03:44:48.085Z,0.80
2022-10-25T03:49:49.826Z,1.30
2022-10-25T03:54:51.492Z,0.93
2022-10-25T03:59:53.095Z,1.03
2022-10-25T04:04:54.680Z,0.90
2022-10-25T04:09:56.351Z,0.87
2022-10-25T04:14:58.006Z,1.13
2022-10-25T04:19:59.542Z,1.17
2022-10-25T04:25:01.068Z,1.20
2022-10-25T04:30:02.619Z,1.00
2022-10-25T04:35:04.557Z,1.47
2022-10-25T04:40:06.729Z,1.07
2022-10-25T04:45:08.660Z,1.60
2022-10-25T04:50:10.137Z,1.13
2022-10-25T04:55:11.584Z,1.27
2022-10-25T05:00:13.506Z,1.07
2022-10-25T05:05:15.014Z,1.30
2022-10-25T05:10:17.138Z,1.27
2022-10-25T05:15:18.660Z,1.10
2022-10-25T05:20:20.250Z,1.10
2022-10-25T05:25:21.844Z,1.03
2022-10-25T05:30:23.441Z,1.10
2022-10-25T05:35:25.057Z,1.43
2022-10-25T05:40:26.729Z,1.40
2022-10-25T05:45:29.136Z,1.13
2022-10-25T05:50:30.814Z,1.17
2022-10-25T05:55:33.880Z,1.17
2022-10-25T06:00:35.564Z,1.07
2022-10-25T06:05:37.404Z,1.07
2022-10-25T06:10:39.015Z,1.10
2022-10-25T06:15:40.584Z,1.07
2022-10-25T06:20:43.110Z,1.30
2022-10-25T06:25:44.650Z,1.13
2022-10-25T06:30:47.573Z,1.30
2022-10-25T06:35:54.895Z,1.80
2022-10-25T06:41:00.712Z,1.60
2022-10-25T06:46:10.105Z,1.50
2022-10-25T06:51:11.757Z,1.50
2022-10-25T06:56:14.923Z,1.60
2022-10-25T07:01:18.118Z,1.50
2022-10-25T07:06:35.226Z,1.73
2022-10-25T07:11:37.078Z,1.70
2022-10-25T07:16:38.989Z,1.43
2022-10-25T07:21:40.601Z,2.10
2022-10-25T07:26:42.397Z,1.50
2022-10-25T07:31:45.118Z,1.20
2022-10-25T07:36:46.646Z,1.10
2022-10-25T07:41:48.330Z,1.10
2022-10-25T07:46:52.170Z,1.33
2022-10-25T07:51:53.944Z,1.40
2022-10-25T07:56:55.606Z,1.10
2022-10-25T08:01:57.547Z,1.03
2022-10-25T08:07:01.286Z,1.23
2022-10-25T08:12:02.933Z,0.97
2022-10-25T08:17:04.507Z,1.00
2022-10-25T08:22:06.127Z,0.90
2022-10-25T08:27:07.931Z,1.13
2022-10-25T08:32:09.516Z,1.00
2022-10-25T08:37:12.422Z,0.63
2022-10-25T08:42:39.421Z,0.63
2022-10-25T08:47:43.658Z,0.97
2022-10-25T08:52:53.947Z,1.20
2022-10-25T08:57:56.277Z,0.90
2022-10-25T09:02:59.505Z,0.80
2022-10-25T09:08:08.821Z,0.93
2022-10-25T09:18:48.452Z,0.93
2022-10-25T09:23:58.561Z,0.73
2022-10-25T09:29:09.922Z,0.80
2022-10-25T09:34:12.193Z,0.87
2022-10-25T09:39:23.710Z,1.00
2022-10-25T09:44:39.218Z,1.20
2022-10-25T09:49:47.231Z,1.20
2022-10-25T09:54:53.116Z,0.83
2022-10-25T09:59:54.841Z,1.27
2022-10-25T10:04:56.587Z,0.87
2022-10-25T10:10:01.187Z,1.00
2022-10-25T10:15:12.052Z,0.60
2022-10-25T10:20:16.285Z,1.53
2022-10-25T10:25:24.376Z,0.50
2022-10-25T10:30:29.045Z,0.87
2022-10-25T10:35:33.630Z,0.70
2022-10-25T10:40:35.221Z,0.80
2022-10-25T10:45:37.046Z,0.67
2022-10-25T10:50:38.654Z,0.80
2022-10-25T10:55:46.047Z,0.87
2022-10-25T11:00:52.112Z,0.80
2022-10-25T11:05:54.138Z,0.70
2022-10-25T11:11:13.716Z,0.87
2022-10-25T11:16:43.230Z,0.67
2022-10-25T11:22:00.454Z,0.60
2022-10-25T11:27:16.569Z,0.60
2022-10-25T11:37:58.040Z,0.80
2022-10-25T11:42:59.601Z,0.70
2022-10-25T11:48:26.367Z,0.70
2022-10-25T11:53:41.614Z,0.80
2022-10-25T11:58:55.912Z,0.70
2022-10-25T12:04:26.899Z,1.00
2022-10-25T12:09:50.440Z,0.80
2022-10-25T12:14:55.808Z,0.83
2022-10-25T12:20:00.894Z,0.87
2022-10-25T12:25:07.839Z,0.83
2022-10-25T12:30:17.736Z,0.83
2022-10-25T12:35:26.990Z,0.80
2022-10-25T12:40:29.173Z,0.73
2022-10-25T12:45:42.921Z,0.70
2022-10-25T12:51:07.183Z,0.63
2022-10-25T12:56:20.450Z,0.83
2022-10-25T13:01:55.944Z,0.87
2022-10-25T13:06:58.171Z,0.80
2022-10-25T13:12:08.111Z,0.67
2022-10-25T13:17:18.563Z,0.50
2022-10-25T13:22:34.174Z,0.60
2022-10-25T13:28:18.188Z,0.50
2022-10-25T13:33:21.495Z,0.57
2022-10-25T13:38:26.220Z,0.60
2022-10-25T13:43:27.823Z,0.60
2022-10-25T13:48:34.594Z,0.80
2022-10-25T13:53:39.783Z,0.50
2022-10-25T13:58:43.348Z,0.70
2022-10-25T14:04:03.525Z,0.60
2022-10-25T14:09:25.798Z,0.77
2022-10-25T14:14:55.283Z,0.70
2022-10-25T14:19:59.329Z,0.63
2022-10-25T14:25:06.093Z,0.60
2022-10-25T14:30:23.316Z,0.50
2022-10-25T14:35:30.741Z,0.63
2022-10-25T14:40:32.870Z,0.70
2022-10-25T14:45:34.529Z,0.80
2022-10-25T14:50:37.732Z,0.53
2022-10-25T14:55:39.404Z,0.77
2022-10-25T15:00:52.186Z,0.70
2022-10-25T15:05:53.814Z,0.80
2022-10-25T15:10:58.366Z,0.70
2022-10-25T15:16:02.843Z,0.60
2022-10-25T15:21:13.309Z,0.80
2022-10-25T15:26:23.702Z,0.67
2022-10-25T15:31:27.459Z,1.30
2022-10-25T15:36:31.179Z,0.97
2022-10-25T15:41:33.065Z,0.70
2022-10-25T15:46:35.005Z,0.77
2022-10-25T15:51:39.874Z,1.10
2022-10-25T15:56:41.558Z,1.00
2022-10-25T16:01:48.838Z,0.93
2022-10-25T16:06:50.466Z,0.80
2022-10-25T16:11:54.143Z,0.87
2022-10-25T16:16:58.169Z,0.80
2022-10-25T16:21:59.829Z,1.00
2022-10-25T16:27:01.471Z,0.90
2022-10-25T16:32:04.073Z,1.30
2022-10-25T16:37:09.151Z,1.20
2022-10-25T16:42:36.231Z,1.03
2022-10-25T16:47:37.786Z,1.10
2022-10-25T16:52:39.255Z,1.73
2022-10-25T16:57:40.851Z,2.03
2022-10-25T17:02:42.464Z,1.87
2022-10-25T17:07:45.551Z,2.13
2022-10-25T17:12:52.546Z,1.73
2022-10-25T17:17:54.164Z,1.37
2022-10-25T17:22:56.248Z,1.40
2022-10-25T17:27:57.772Z,1.40
2022-10-25T17:32:59.476Z,1.70
2022-10-25T17:38:01.130Z,2.03
2022-10-25T17:43:02.698Z,1.87
2022-10-25T17:48:04.806Z,2.60
2022-10-25T17:53:07.629Z,2.47
2022-10-25T17:58:09.406Z,1.93
2022-10-25T18:03:11.073Z,1.93
2022-10-25T18:08:12.769Z,1.63
2022-10-25T18:13:14.333Z,1.63
2022-10-25T18:18:16.907Z,1.80
2022-10-25T18:23:18.363Z,1.40
2022-10-25T18:28:19.990Z,1.60
2022-10-25T18:33:24.929Z,1.97
2022-10-25T18:38:27.296Z,1.50
2022-10-25T18:43:29.142Z,1.60
2022-10-25T18:48:30.616Z,2.03
2022-10-25T18:53:32.451Z,2.50
2022-10-25T18:58:33.912Z,2.00
2022-10-25T19:03:35.814Z,2.43
2022-10-25T19:08:37.778Z,1.90
2022-10-25T19:13:40.318Z,1.67
2022-10-25T19:18:42.089Z,1.93
2022-10-25T19:23:46.082Z,1.87
2022-10-25T19:28:47.859Z,1.60
2022-10-25T19:33:50.811Z,2.03
2022-10-25T19:38:52.469Z,2.07
2022-10-25T19:43:56.264Z,1.80
2022-10-25T19:49:00.364Z,1.77
2022-10-25T19:54:01.935Z,2.20
2022-10-25T19:59:04.809Z,2.37
2022-10-25T20:04:06.294Z,2.30
2022-10-25T20:09:09.799Z,2.80
2022-10-25T20:14:11.405Z,2.30
2022-10-25T20:19:13.918Z,2.23
2022-10-25T20:24:15.888Z,2.40
2022-10-25T20:29:23.668Z,2.40
2022-10-25T20:34:25.324Z,2.17
2022-10-25T20:39:26.993Z,2.20
2022-10-25T20:44:28.728Z,2.10
2022-10-25T20:49:30.514Z,1.90
2022-10-25T20:54:32.250Z,2.30
2022-10-25T20:59:33.954Z,1.93
2022-10-25T21:04:42.760Z,1.90
2022-10-25T21:09:54.897Z,1.87
2022-10-25T21:14:56.727Z,2.10
2022-10-25T21:19:58.308Z,1.93
2022-10-25T21:24:59.966Z,2.00
2022-10-25T21:30:01.828Z,2.20
2022-10-25T21:35:03.553Z,2.10
2022-10-25T21:40:05.811Z,2.37
2022-10-25T21:45:08.477Z,1.90
2022-10-25T21:50:10.179Z,1.90
2022-10-25T21:55:11.815Z,1.60
2022-10-25T22:00:13.817Z,2.00
2022-10-25T22:05:15.383Z,1.30
2022-10-25T22:10:16.992Z,1.40
2022-10-25T22:15:18.617Z,1.57
2022-10-25T22:20:20.144Z,1.40
2022-10-25T22:25:21.825Z,1.70
2022-10-25T22:30:23.664Z,1.93
2022-10-25T22:35:25.796Z,1.30
2022-10-25T22:40:27.663Z,1.33
2022-10-25T22:45:29.176Z,1.60
2022-10-25T22:50:30.727Z,1.70
2022-10-25T22:55:32.373Z,2.00
2022-10-25T23:00:34.007Z,1.60
2022-10-25T23:05:36.257Z,1.60
2022-10-25T23:10:37.865Z,1.60
2022-10-25T23:15:39.624Z,1.77
2022-10-25T23:20:49.444Z,1.77
2022-10-25T23:25:51.207Z,1.60
2022-10-25T23:30:52.912Z,1.90
2022-10-25T23:35:54.551Z,1.70
2022-10-25T23:40:56.720Z,1.90
2022-10-25T23:45:58.517Z,1.80
2022-10-25T23:51:02.189Z,1.80
2022-10-25T23:56:06.266Z,1.60
